sensor_id;sensor_type;location;lat;lon;timestamp;pressure;altitude;pressure_sealevel;temperature
78905;BMP280;68291;49.602;8.722;2023-10-13T00:00:45;99522.09;;;20.00
78905;BMP280;68291;49.602;8.722;2023-10-13T00:03:23;99523.75;;;20.01
78905;BMP280;68291;49.602;8.722;2023-10-13T00:06:17;99526.22;;;20.02
78905;BMP280;68291;49.602;8.722;2023-10-13T00:08:54;99530.38;;;20.05
78905;BMP280;68291;49.602;8.722;2023-10-13T00:11:42;99530.09;;;20.08
78905;BMP280;68291;49.602;8.722;2023-10-13T00:14:20;99540.56;;;20.08
78905;BMP280;68291;49.602;8.722;2023-10-13T00:17:01;99536.19;;;20.08
78905;BMP280;68291;49.602;8.722;2023-10-13T00:19:59;99531.66;;;20.10
78905;BMP280;68291;49.602;8.722;2023-10-13T00:23:08;99536.03;;;20.10
78905;BMP280;68291;49.602;8.722;2023-10-13T00:26:24;99538.66;;;20.10
78905;BMP280;68291;49.602;8.722;2023-10-13T00:29:04;99531.50;;;20.12
78905;BMP280;68291;49.602;8.722;2023-10-13T00:32:14;99535.81;;;20.13
78905;BMP280;68291;49.602;8.722;2023-10-13T00:35:14;99529.88;;;20.11
78905;BMP280;68291;49.602;8.722;2023-10-13T00:37:55;99529.88;;;20.11
78905;BMP280;68291;49.602;8.722;2023-10-13T00:40:53;99521.06;;;20.12
78905;BMP280;68291;49.602;8.722;2023-10-13T00:43:55;99526.16;;;20.13
78905;BMP280;68291;49.602;8.722;2023-10-13T00:47:00;99529.38;;;20.17
78905;BMP280;68291;49.602;8.722;2023-10-13T00:49:49;99519.72;;;20.17
78905;BMP280;68291;49.602;8.722;2023-10-13T00:52:29;99523.88;;;20.20
78905;BMP280;68291;49.602;8.722;2023-10-13T00:55:18;99515.19;;;20.19
78905;BMP280;68291;49.602;8.722;2023-10-13T00:59:01;99513.41;;;20.20
78905;BMP280;68291;49.602;8.722;2023-10-13T01:01:44;99505.44;;;20.21
78905;BMP280;68291;49.602;8.722;2023-10-13T01:04:46;99514.13;;;20.22
78905;BMP280;68291;49.602;8.722;2023-10-13T01:07:31;99513.13;;;20.23
78905;BMP280;68291;49.602;8.722;2023-10-13T01:10:12;99501.75;;;20.24
78905;BMP280;68291;49.602;8.722;2023-10-13T01:13:05;99496.63;;;20.22
78905;BMP280;68291;49.602;8.722;2023-10-13T01:16:07;99492.22;;;20.23
78905;BMP280;68291;49.602;8.722;2023-10-13T01:19:02;99486.06;;;20.24
78905;BMP280;68291;49.602;8.722;2023-10-13T01:21:58;99479.84;;;20.24
78905;BMP280;68291;49.602;8.722;2023-10-13T01:24:53;99479.84;;;20.24
78905;BMP280;68291;49.602;8.722;2023-10-13T01:27:55;99479.59;;;20.27
78905;BMP280;68291;49.602;8.722;2023-10-13T01:30:48;99487.19;;;20.30
78905;BMP280;68291;49.602;8.722;2023-10-13T01:33:31;99484.56;;;20.30
78905;BMP280;68291;49.602;8.722;2023-10-13T01:36:37;99476.03;;;20.28
78905;BMP280;68291;49.602;8.722;2023-10-13T01:39:26;99476.28;;;20.25
78905;BMP280;68291;49.602;8.722;2023-10-13T01:42:04;99475.31;;;20.26
78905;BMP280;68291;49.602;8.722;2023-10-13T01:44:51;99462.25;;;20.26
78905;BMP280;68291;49.602;8.722;2023-10-13T01:47:44;99470.22;;;20.25
78905;BMP280;68291;49.602;8.722;2023-10-13T01:50:41;99465.94;;;20.24
78905;BMP280;68291;49.602;8.722;2023-10-13T01:53:32;99462.38;;;20.25
78905;BMP280;68291;49.602;8.722;2023-10-13T01:56:29;99466.66;;;20.26
78905;BMP280;68291;49.602;8.722;2023-10-13T01:59:50;99458.09;;;20.24
78905;BMP280;68291;49.602;8.722;2023-10-13T02:02:54;99458.09;;;20.24
78905;BMP280;68291;49.602;8.722;2023-10-13T02:05:56;99451.09;;;20.24
78905;BMP280;68291;49.602;8.722;2023-10-13T02:08:45;99446.81;;;20.24
78905;BMP280;68291;49.602;8.722;2023-10-13T02:11:41;99442.53;;;20.23
78905;BMP280;68291;49.602;8.722;2023-10-13T02:14:24;99441.59;;;20.24
78905;BMP280;68291;49.602;8.722;2023-10-13T02:18:01;99435.38;;;20.24
78905;BMP280;68291;49.602;8.722;2023-10-13T02:20:35;99439.41;;;20.28
78905;BMP280;68291;49.602;8.722;2023-10-13T02:23:23;99446.31;;;20.29
78905;BMP280;68291;49.602;8.722;2023-10-13T02:26:10;99447.13;;;20.30
78905;BMP280;68291;49.602;8.722;2023-10-13T02:29:16;99440.22;;;20.29
78905;BMP280;68291;49.602;8.722;2023-10-13T02:31:57;99432.78;;;20.24
78905;BMP280;68291;49.602;8.722;2023-10-13T02:35:00;99434.69;;;20.23
78905;BMP280;68291;49.602;8.722;2023-10-13T02:37:44;99420.41;;;20.26
78905;BMP280;68291;49.602;8.722;2023-10-13T02:41:01;99421.53;;;20.33
78905;BMP280;68291;49.602;8.722;2023-10-13T02:43:44;99420.47;;;20.36
78905;BMP280;68291;49.602;8.722;2023-10-13T02:46:28;99427.22;;;20.38
78905;BMP280;68291;49.602;8.722;2023-10-13T02:49:23;99424.59;;;20.38
78905;BMP280;68291;49.602;8.722;2023-10-13T02:52:44;99428.16;;;20.37
78905;BMP280;68291;49.602;8.722;2023-10-13T02:55:20;99419.09;;;20.41
78905;BMP280;68291;49.602;8.722;2023-10-13T02:58:21;99425.84;;;20.44
78905;BMP280;68291;49.602;8.722;2023-10-13T03:01:08;99413.34;;;20.47
78905;BMP280;68291;49.602;8.722;2023-10-13T03:04:23;99417.88;;;20.55
78905;BMP280;68291;49.602;8.722;2023-10-13T03:07:22;99415.03;;;20.58
78905;BMP280;68291;49.602;8.722;2023-10-13T03:10:21;99420.59;;;20.64
78905;BMP280;68291;49.602;8.722;2023-10-13T03:13:05;99403.50;;;20.69
78905;BMP280;68291;49.602;8.722;2023-10-13T03:15:50;99405.72;;;20.74
78905;BMP280;68291;49.602;8.722;2023-10-13T03:18:38;99398.03;;;20.82
78905;BMP280;68291;49.602;8.722;2023-10-13T03:21:40;99399.13;;;20.89
78905;BMP280;68291;49.602;8.722;2023-10-13T03:24:15;99404.25;;;20.99
78905;BMP280;68291;49.602;8.722;2023-10-13T03:27:12;99399.41;;;21.04
78905;BMP280;68291;49.602;8.722;2023-10-13T03:29:59;99388.94;;;21.04
78905;BMP280;68291;49.602;8.722;2023-10-13T03:32:42;99398.06;;;21.10
78905;BMP280;68291;49.602;8.722;2023-10-13T03:35:24;99382.22;;;21.11
78905;BMP280;68291;49.602;8.722;2023-10-13T03:38:12;99391.13;;;21.09
78905;BMP280;68291;49.602;8.722;2023-10-13T03:40:58;99387.28;;;21.03
78905;BMP280;68291;49.602;8.722;2023-10-13T03:43:46;99380.53;;;21.01
78905;BMP280;68291;49.602;8.722;2023-10-13T03:46:34;99366.34;;;21.03
78905;BMP280;68291;49.602;8.722;2023-10-13T03:49:24;99374.34;;;21.02
78905;BMP280;68291;49.602;8.722;2023-10-13T03:52:05;99375.44;;;20.99
78905;BMP280;68291;49.602;8.722;2023-10-13T03:54:56;99374.75;;;20.97
78905;BMP280;68291;49.602;8.722;2023-10-13T03:58:04;99375.72;;;20.96
78905;BMP280;68291;49.602;8.722;2023-10-13T04:01:10;99367.88;;;20.96
78905;BMP280;68291;49.602;8.722;2023-10-13T04:04:11;99364.16;;;20.99
78905;BMP280;68291;49.602;8.722;2023-10-13T04:06:56;99358.63;;;21.02
78905;BMP280;68291;49.602;8.722;2023-10-13T04:09:43;99351.47;;;21.04
78905;BMP280;68291;49.602;8.722;2023-10-13T04:12:33;99348.31;;;21.00
78905;BMP280;68291;49.602;8.722;2023-10-13T04:15:34;99360.00;;;20.96
78905;BMP280;68291;49.602;8.722;2023-10-13T04:18:41;99355.31;;;20.91
78905;BMP280;68291;49.602;8.722;2023-10-13T04:21:39;99350.38;;;20.88
78905;BMP280;68291;49.602;8.722;2023-10-13T04:24:26;99353.41;;;20.83
78905;BMP280;68291;49.602;8.722;2023-10-13T04:27:17;99355.31;;;20.81
78905;BMP280;68291;49.602;8.722;2023-10-13T04:30:19;99352.44;;;20.75
78905;BMP280;68291;49.602;8.722;2023-10-13T04:33:19;99346.50;;;20.73
78905;BMP280;68291;49.602;8.722;2023-10-13T04:36:25;99355.84;;;20.66
78905;BMP280;68291;49.602;8.722;2023-10-13T04:39:38;99344.00;;;20.62
78905;BMP280;68291;49.602;8.722;2023-10-13T04:42:35;99340.69;;;20.60
78905;BMP280;68291;49.602;8.722;2023-10-13T04:45:51;99329.25;;;20.61
78905;BMP280;68291;49.602;8.722;2023-10-13T04:48:41;99332.44;;;20.64
78905;BMP280;68291;49.602;8.722;2023-10-13T04:51:47;99315.47;;;20.59
78905;BMP280;68291;49.602;8.722;2023-10-13T04:54:45;99316.16;;;20.61
78905;BMP280;68291;49.602;8.722;2023-10-13T04:57:52;99308.31;;;20.61
78905;BMP280;68291;49.602;8.722;2023-10-13T05:00:52;99313.31;;;20.64
78905;BMP280;68291;49.602;8.722;2023-10-13T05:03:50;99317.00;;;20.61
78905;BMP280;68291;49.602;8.722;2023-10-13T05:06:43;99316.16;;;20.61
78905;BMP280;68291;49.602;8.722;2023-10-13T05:10:21;99318.53;;;20.64
78905;BMP280;68291;49.602;8.722;2023-10-13T05:13:25;99315.09;;;20.73
78905;BMP280;68291;49.602;8.722;2023-10-13T05:16:40;99309.28;;;20.79
78905;BMP280;68291;49.602;8.722;2023-10-13T05:19:28;99304.63;;;20.82
78905;BMP280;68291;49.602;8.722;2023-10-13T05:22:21;99300.19;;;20.83
78905;BMP280;68291;49.602;8.722;2023-10-13T05:25:12;99294.97;;;20.83
78905;BMP280;68291;49.602;8.722;2023-10-13T05:28:25;99297.75;;;20.81
78905;BMP280;68291;49.602;8.722;2023-10-13T05:31:21;99290.59;;;20.83
78905;BMP280;68291;49.602;8.722;2023-10-13T05:34:13;99288.66;;;20.94
78905;BMP280;68291;49.602;8.722;2023-10-13T05:37:08;99286.81;;;21.04
78905;BMP280;68291;49.602;8.722;2023-10-13T05:39:58;99285.84;;;21.15
78905;BMP280;68291;49.602;8.722;2023-10-13T05:42:53;99282.38;;;21.24
78905;BMP280;68291;49.602;8.722;2023-10-13T05:46:03;99286.63;;;21.34
78905;BMP280;68291;49.602;8.722;2023-10-13T05:49:52;99283.06;;;21.44
78905;BMP280;68291;49.602;8.722;2023-10-13T05:52:56;99275.47;;;21.51
78905;BMP280;68291;49.602;8.722;2023-10-13T05:55:48;99284.69;;;21.55
78905;BMP280;68291;49.602;8.722;2023-10-13T05:58:44;99263.19;;;21.61
78905;BMP280;68291;49.602;8.722;2023-10-13T06:01:38;99260.38;;;21.62
78905;BMP280;68291;49.602;8.722;2023-10-13T06:04:28;99273.34;;;21.63
78905;BMP280;68291;49.602;8.722;2023-10-13T06:07:20;99271.41;;;21.65
78905;BMP280;68291;49.602;8.722;2023-10-13T06:10:12;99268.13;;;21.63
78905;BMP280;68291;49.602;8.722;2023-10-13T06:13:04;99263.44;;;21.58
78905;BMP280;68291;49.602;8.722;2023-10-13T06:15:51;99271.31;;;21.58
78905;BMP280;68291;49.602;8.722;2023-10-13T06:18:47;99274.09;;;21.56
78905;BMP280;68291;49.602;8.722;2023-10-13T06:21:45;99273.66;;;21.51
78905;BMP280;68291;49.602;8.722;2023-10-13T06:24:36;99283.63;;;21.48
78905;BMP280;68291;49.602;8.722;2023-10-13T06:27:26;99278.66;;;21.45
78905;BMP280;68291;49.602;8.722;2023-10-13T06:30:31;99285.53;;;21.36
78905;BMP280;68291;49.602;8.722;2023-10-13T06:33:29;99279.06;;;21.31
78905;BMP280;68291;49.602;8.722;2023-10-13T06:36:43;99290.66;;;21.28
78905;BMP280;68291;49.602;8.722;2023-10-13T06:39:45;99297.69;;;21.28
78905;BMP280;68291;49.602;8.722;2023-10-13T06:42:32;99294.94;;;21.29
78905;BMP280;68291;49.602;8.722;2023-10-13T06:45:14;99296.16;;;21.35
78905;BMP280;68291;49.602;8.722;2023-10-13T06:48:03;99303.06;;;21.36
78905;BMP280;68291;49.602;8.722;2023-10-13T06:51:01;99302.78;;;21.29
78905;BMP280;68291;49.602;8.722;2023-10-13T06:54:33;99312.31;;;21.40
78905;BMP280;68291;49.602;8.722;2023-10-13T06:57:16;99312.44;;;21.48
78905;BMP280;68291;49.602;8.722;2023-10-13T06:59:51;99308.16;;;21.56
78905;BMP280;68291;49.602;8.722;2023-10-13T07:02:55;99308.41;;;21.63
78905;BMP280;68291;49.602;8.722;2023-10-13T07:05:40;99311.41;;;21.67
78905;BMP280;68291;49.602;8.722;2023-10-13T07:08:12;99307.81;;;21.68
78905;BMP280;68291;49.602;8.722;2023-10-13T07:11:11;99304.94;;;21.71
78905;BMP280;68291;49.602;8.722;2023-10-13T07:13:56;99307.25;;;21.74
78905;BMP280;68291;49.602;8.722;2023-10-13T07:17:10;99307.50;;;21.81
78905;BMP280;68291;49.602;8.722;2023-10-13T07:19:55;99315.47;;;21.89
78905;BMP280;68291;49.602;8.722;2023-10-13T07:22:43;99303.31;;;21.97
78905;BMP280;68291;49.602;8.722;2023-10-13T07:25:33;99304.19;;;22.05
78905;BMP280;68291;49.602;8.722;2023-10-13T07:28:26;99297.16;;;22.15
78905;BMP280;68291;49.602;8.722;2023-10-13T07:31:31;99311.88;;;22.26
78905;BMP280;68291;49.602;8.722;2023-10-13T07:34:28;99308.38;;;22.34
78905;BMP280;68291;49.602;8.722;2023-10-13T07:37:08;99295.13;;;22.36
78905;BMP280;68291;49.602;8.722;2023-10-13T07:39:55;99315.44;;;22.51
78905;BMP280;68291;49.602;8.722;2023-10-13T07:42:59;99306.13;;;22.57
78905;BMP280;68291;49.602;8.722;2023-10-13T07:46:32;99298.22;;;22.66
78905;BMP280;68291;49.602;8.722;2023-10-13T07:49:06;99297.00;;;22.78
78905;BMP280;68291;49.602;8.722;2023-10-13T07:51:56;99300.25;;;22.89
78905;BMP280;68291;49.602;8.722;2023-10-13T07:54:47;99292.66;;;23.03
78905;BMP280;68291;49.602;8.722;2023-10-13T07:57:27;99300.16;;;23.16
78905;BMP280;68291;49.602;8.722;2023-10-13T08:00:14;99287.75;;;23.26
78905;BMP280;68291;49.602;8.722;2023-10-13T08:03:15;99282.09;;;23.38
78905;BMP280;68291;49.602;8.722;2023-10-13T08:06:04;99287.75;;;23.51
78905;BMP280;68291;49.602;8.722;2023-10-13T08:08:50;99282.94;;;23.64
78905;BMP280;68291;49.602;8.722;2023-10-13T08:11:36;99296.50;;;23.76
78905;BMP280;68291;49.602;8.722;2023-10-13T08:14:22;99287.38;;;23.88
78905;BMP280;68291;49.602;8.722;2023-10-13T08:17:10;99283.44;;;24.00
78905;BMP280;68291;49.602;8.722;2023-10-13T08:20:59;99292.69;;;24.04
78905;BMP280;68291;49.602;8.722;2023-10-13T08:23:46;99296.31;;;24.11
78905;BMP280;68291;49.602;8.722;2023-10-13T08:27:02;99302.09;;;24.14
78905;BMP280;68291;49.602;8.722;2023-10-13T08:30:06;99292.41;;;24.15
78905;BMP280;68291;49.602;8.722;2023-10-13T08:33:00;99294.88;;;24.16
78905;BMP280;68291;49.602;8.722;2023-10-13T08:35:46;99296.84;;;24.22
78905;BMP280;68291;49.602;8.722;2023-10-13T08:38:57;99293.00;;;24.34
78905;BMP280;68291;49.602;8.722;2023-10-13T08:42:01;99286.75;;;24.43
78905;BMP280;68291;49.602;8.722;2023-10-13T08:44:45;99287.94;;;24.48
78905;BMP280;68291;49.602;8.722;2023-10-13T08:47:27;99275.09;;;24.53
78905;BMP280;68291;49.602;8.722;2023-10-13T08:50:06;99299.78;;;24.52
78905;BMP280;68291;49.602;8.722;2023-10-13T08:53:06;99283.66;;;24.47
78905;BMP280;68291;49.602;8.722;2023-10-13T08:56:22;99284.78;;;24.45
78905;BMP280;68291;49.602;8.722;2023-10-13T08:59:07;99287.94;;;24.48
78905;BMP280;68291;49.602;8.722;2023-10-13T09:01:46;99273.78;;;24.49
78905;BMP280;68291;49.602;8.722;2023-10-13T09:04:49;99276.75;;;24.54
78905;BMP280;68291;49.602;8.722;2023-10-13T09:08:04;99270.16;;;24.58
78905;BMP280;68291;49.602;8.722;2023-10-13T09:10:59;99266.88;;;24.64
78905;BMP280;68291;49.602;8.722;2023-10-13T09:14:16;99264.78;;;24.68
78905;BMP280;68291;49.602;8.722;2023-10-13T09:17:07;99268.53;;;24.73
78905;BMP280;68291;49.602;8.722;2023-10-13T09:19:54;99264.94;;;24.74
78905;BMP280;68291;49.602;8.722;2023-10-13T09:22:35;99267.22;;;24.77
78905;BMP280;68291;49.602;8.722;2023-10-13T09:25:53;99255.88;;;24.76
78905;BMP280;68291;49.602;8.722;2023-10-13T09:28:39;99249.31;;;24.80
78905;BMP280;68291;49.602;8.722;2023-10-13T09:31:43;99243.34;;;24.86
78905;BMP280;68291;49.602;8.722;2023-10-13T09:34:49;99239.91;;;24.86
78905;BMP280;68291;49.602;8.722;2023-10-13T09:37:33;99235.00;;;24.91
78905;BMP280;68291;49.602;8.722;2023-10-13T09:40:31;99221.31;;;24.95
78905;BMP280;68291;49.602;8.722;2023-10-13T09:43:33;99231.06;;;25.03
78905;BMP280;68291;49.602;8.722;2023-10-13T09:46:49;99208.66;;;25.07
78905;BMP280;68291;49.602;8.722;2023-10-13T09:49:28;99214.91;;;25.13
78905;BMP280;68291;49.602;8.722;2023-10-13T09:52:25;99208.97;;;25.19
78905;BMP280;68291;49.602;8.722;2023-10-13T09:55:19;99205.00;;;25.23
78905;BMP280;68291;49.602;8.722;2023-10-13T09:58:06;99209.94;;;25.34
78905;BMP280;68291;49.602;8.722;2023-10-13T10:00:51;99188.78;;;25.42
78905;BMP280;68291;49.602;8.722;2023-10-13T10:03:55;99201.47;;;25.54
78905;BMP280;68291;49.602;8.722;2023-10-13T10:06:53;99205.56;;;25.65
78905;BMP280;68291;49.602;8.722;2023-10-13T10:09:57;99195.63;;;25.75
78905;BMP280;68291;49.602;8.722;2023-10-13T10:12:52;99205.28;;;25.90
78905;BMP280;68291;49.602;8.722;2023-10-13T10:15:35;99204.06;;;26.00
78905;BMP280;68291;49.602;8.722;2023-10-13T10:18:20;99190.03;;;26.08
78905;BMP280;68291;49.602;8.722;2023-10-13T10:21:08;99194.44;;;26.15
78905;BMP280;68291;49.602;8.722;2023-10-13T10:24:22;99201.69;;;26.21
78905;BMP280;68291;49.602;8.722;2023-10-13T10:27:30;99192.22;;;26.26
78905;BMP280;68291;49.602;8.722;2023-10-13T10:30:44;99198.16;;;26.28
78905;BMP280;68291;49.602;8.722;2023-10-13T10:33:31;99190.72;;;26.32
78905;BMP280;68291;49.602;8.722;2023-10-13T10:36:11;99185.09;;;26.35
78905;BMP280;68291;49.602;8.722;2023-10-13T10:38:56;99178.47;;;26.39
78905;BMP280;68291;49.602;8.722;2023-10-13T10:41:34;99190.44;;;26.49
78905;BMP280;68291;49.602;8.722;2023-10-13T10:44:20;99186.56;;;26.59
78905;BMP280;68291;49.602;8.722;2023-10-13T10:47:17;99171.91;;;26.71
78905;BMP280;68291;49.602;8.722;2023-10-13T10:50:05;99164.88;;;26.86
78905;BMP280;68291;49.602;8.722;2023-10-13T10:53:05;99163.47;;;26.98
78905;BMP280;68291;49.602;8.722;2023-10-13T10:56:06;99162.56;;;27.05
78905;BMP280;68291;49.602;8.722;2023-10-13T10:59:06;99141.50;;;27.12
78905;BMP280;68291;49.602;8.722;2023-10-13T11:01:49;99136.22;;;27.26
78905;BMP280;68291;49.602;8.722;2023-10-13T11:04:32;99129.38;;;27.31
78905;BMP280;68291;49.602;8.722;2023-10-13T11:07:24;99128.50;;;27.39
78905;BMP280;68291;49.602;8.722;2023-10-13T11:10:30;99127.03;;;27.51
78905;BMP280;68291;49.602;8.722;2023-10-13T11:13:42;99119.47;;;27.62
78905;BMP280;68291;49.602;8.722;2023-10-13T11:16:55;99115.69;;;27.71
78905;BMP280;68291;49.602;8.722;2023-10-13T11:19:46;99119.63;;;27.75
78905;BMP280;68291;49.602;8.722;2023-10-13T11:22:26;99118.22;;;27.79
78905;BMP280;68291;49.602;8.722;2023-10-13T11:25:24;99112.34;;;27.83
78905;BMP280;68291;49.602;8.722;2023-10-13T11:28:18;99106.63;;;27.80
78905;BMP280;68291;49.602;8.722;2023-10-13T11:31:08;99104.81;;;27.80
78905;BMP280;68291;49.602;8.722;2023-10-13T11:33:54;99103.88;;;27.88
78905;BMP280;68291;49.602;8.722;2023-10-13T11:36:50;99095.81;;;27.95
78905;BMP280;68291;49.602;8.722;2023-10-13T11:39:55;99089.97;;;28.00
78905;BMP280;68291;49.602;8.722;2023-10-13T11:42:48;99094.78;;;28.11
78905;BMP280;68291;49.602;8.722;2023-10-13T11:45:52;99087.47;;;28.13
78905;BMP280;68291;49.602;8.722;2023-10-13T11:48:31;99096.28;;;28.20
78905;BMP280;68291;49.602;8.722;2023-10-13T11:51:22;99085.97;;;28.24
78905;BMP280;68291;49.602;8.722;2023-10-13T11:54:20;99079.34;;;28.35
78905;BMP280;68291;49.602;8.722;2023-10-13T11:57:02;99086.50;;;28.41
78905;BMP280;68291;49.602;8.722;2023-10-13T12:00:19;99075.38;;;28.52
78905;BMP280;68291;49.602;8.722;2023-10-13T12:03:28;99057.19;;;28.63
78905;BMP280;68291;49.602;8.722;2023-10-13T12:06:18;99057.28;;;28.76
78905;BMP280;68291;49.602;8.722;2023-10-13T12:09:18;99056.34;;;28.90
78905;BMP280;68291;49.602;8.722;2023-10-13T12:12:11;99049.25;;;29.03
78905;BMP280;68291;49.602;8.722;2023-10-13T12:14:50;99050.41;;;29.15
78905;BMP280;68291;49.602;8.722;2023-10-13T12:17:27;99045.16;;;29.28
78905;BMP280;68291;49.602;8.722;2023-10-13T12:20:09;99045.56;;;29.31
78905;BMP280;68291;49.602;8.722;2023-10-13T12:23:13;99043.13;;;29.29
78905;BMP280;68291;49.602;8.722;2023-10-13T12:25:47;99036.16;;;29.28
78905;BMP280;68291;49.602;8.722;2023-10-13T12:29:03;99019.63;;;29.27
78905;BMP280;68291;49.602;8.722;2023-10-13T12:32:20;99029.84;;;29.23
78905;BMP280;68291;49.602;8.722;2023-10-13T12:35:54;99024.28;;;29.18
78905;BMP280;68291;49.602;8.722;2023-10-13T12:38:49;99008.00;;;29.21
78905;BMP280;68291;49.602;8.722;2023-10-13T12:41:48;98994.94;;;29.26
78905;BMP280;68291;49.602;8.722;2023-10-13T12:44:42;98997.81;;;29.31
78905;BMP280;68291;49.602;8.722;2023-10-13T12:47:32;98998.25;;;29.34
78905;BMP280;68291;49.602;8.722;2023-10-13T12:50:24;98987.84;;;29.39
78905;BMP280;68291;49.602;8.722;2023-10-13T12:53:33;98986.44;;;29.50
78905;BMP280;68291;49.602;8.722;2023-10-13T12:56:31;98989.31;;;29.55
78905;BMP280;68291;49.602;8.722;2023-10-13T12:59:13;98993.63;;;29.62
78905;BMP280;68291;49.602;8.722;2023-10-13T13:02:30;98988.59;;;29.80
78905;BMP280;68291;49.602;8.722;2023-10-13T13:05:36;98978.78;;;29.99
78905;BMP280;68291;49.602;8.722;2023-10-13T13:08:23;98988.19;;;30.15
78905;BMP280;68291;49.602;8.722;2023-10-13T13:11:03;98976.38;;;30.24
78905;BMP280;68291;49.602;8.722;2023-10-13T13:13:40;98968.38;;;30.36
78905;BMP280;68291;49.602;8.722;2023-10-13T13:16:20;98973.91;;;30.48
78905;BMP280;68291;49.602;8.722;2023-10-13T13:19:30;98968.59;;;30.48
78905;BMP280;68291;49.602;8.722;2023-10-13T13:22:46;98968.59;;;30.54
78905;BMP280;68291;49.602;8.722;2023-10-13T13:25:45;98964.06;;;30.67
78905;BMP280;68291;49.602;8.722;2023-10-13T13:28:39;98955.47;;;30.78
78905;BMP280;68291;49.602;8.722;2023-10-13T13:31:26;98943.78;;;30.79
78905;BMP280;68291;49.602;8.722;2023-10-13T13:34:07;98943.38;;;30.82
78905;BMP280;68291;49.602;8.722;2023-10-13T13:37:13;98932.94;;;30.74
78905;BMP280;68291;49.602;8.722;2023-10-13T13:39:58;98934.41;;;30.64
78905;BMP280;68291;49.602;8.722;2023-10-13T13:42:57;98946.91;;;30.51
78905;BMP280;68291;49.602;8.722;2023-10-13T13:45:37;98930.78;;;30.46
78905;BMP280;68291;49.602;8.722;2023-10-13T13:48:15;98945.28;;;30.50
78905;BMP280;68291;49.602;8.722;2023-10-13T13:50:47;98938.75;;;30.46
78905;BMP280;68291;49.602;8.722;2023-10-13T13:53:51;98921.16;;;30.45
78905;BMP280;68291;49.602;8.722;2023-10-13T13:56:40;98908.25;;;30.55
78905;BMP280;68291;49.602;8.722;2023-10-13T13:59:24;98908.56;;;30.90
78905;BMP280;68291;49.602;8.722;2023-10-13T14:02:04;98905.75;;;31.29
78905;BMP280;68291;49.602;8.722;2023-10-13T14:05:02;98892.72;;;31.75
78905;BMP280;68291;49.602;8.722;2023-10-13T14:07:44;98896.06;;;32.19
78905;BMP280;68291;49.602;8.722;2023-10-13T14:10:40;98886.63;;;32.59
78905;BMP280;68291;49.602;8.722;2023-10-13T14:13:37;98887.13;;;33.03
78905;BMP280;68291;49.602;8.722;2023-10-13T14:17:16;98875.78;;;33.36
78905;BMP280;68291;49.602;8.722;2023-10-13T14:20:10;98885.03;;;33.63
78905;BMP280;68291;49.602;8.722;2023-10-13T14:22:47;98877.63;;;33.76
78905;BMP280;68291;49.602;8.722;2023-10-13T14:25:36;98872.44;;;33.81
78905;BMP280;68291;49.602;8.722;2023-10-13T14:28:22;98869.03;;;33.74
78905;BMP280;68291;49.602;8.722;2023-10-13T14:31:08;98868.06;;;33.57
78905;BMP280;68291;49.602;8.722;2023-10-13T14:34:07;98865.22;;;33.30
78905;BMP280;68291;49.602;8.722;2023-10-13T14:37:11;98856.75;;;33.04
78905;BMP280;68291;49.602;8.722;2023-10-13T14:40:03;98863.06;;;32.74
78905;BMP280;68291;49.602;8.722;2023-10-13T14:42:48;98851.56;;;32.55
78905;BMP280;68291;49.602;8.722;2023-10-13T14:45:36;98843.31;;;32.45
78905;BMP280;68291;49.602;8.722;2023-10-13T14:48:14;98842.84;;;32.48
78905;BMP280;68291;49.602;8.722;2023-10-13T14:51:18;98839.25;;;32.43
78905;BMP280;68291;49.602;8.722;2023-10-13T14:53:52;98840.13;;;32.37
78905;BMP280;68291;49.602;8.722;2023-10-13T14:56:49;98836.88;;;32.35
78905;BMP280;68291;49.602;8.722;2023-10-13T14:59:34;98832.84;;;32.26
78905;BMP280;68291;49.602;8.722;2023-10-13T15:02:35;98834.72;;;32.02
78905;BMP280;68291;49.602;8.722;2023-10-13T15:05:51;98830.22;;;31.78
78905;BMP280;68291;49.602;8.722;2023-10-13T15:08:35;98817.91;;;31.59
78905;BMP280;68291;49.602;8.722;2023-10-13T15:11:19;98818.28;;;31.38
78905;BMP280;68291;49.602;8.722;2023-10-13T15:14:03;98803.22;;;31.20
78905;BMP280;68291;49.602;8.722;2023-10-13T15:17:01;98805.56;;;31.10
78905;BMP280;68291;49.602;8.722;2023-10-13T15:20:12;98795.00;;;30.97
78905;BMP280;68291;49.602;8.722;2023-10-13T15:23:05;98793.84;;;30.87
78905;BMP280;68291;49.602;8.722;2023-10-13T15:26:32;98789.97;;;30.83
78905;BMP280;68291;49.602;8.722;2023-10-13T15:29:19;98790.09;;;30.94
78905;BMP280;68291;49.602;8.722;2023-10-13T15:31:54;98777.31;;;31.09
78905;BMP280;68291;49.602;8.722;2023-10-13T15:34:50;98775.97;;;31.31
78905;BMP280;68291;49.602;8.722;2023-10-13T15:37:31;98776.72;;;31.38
78905;BMP280;68291;49.602;8.722;2023-10-13T15:40:14;98773.03;;;31.38
78905;BMP280;68291;49.602;8.722;2023-10-13T15:43:35;98764.50;;;31.30
78905;BMP280;68291;49.602;8.722;2023-10-13T15:46:37;98769.50;;;31.14
78905;BMP280;68291;49.602;8.722;2023-10-13T15:49:33;98764.63;;;30.80
78905;BMP280;68291;49.602;8.722;2023-10-13T15:52:29;98761.41;;;30.29
78905;BMP280;68291;49.602;8.722;2023-10-13T15:55:27;98766.63;;;29.79
78905;BMP280;68291;49.602;8.722;2023-10-13T15:58:26;98757.66;;;29.28
78905;BMP280;68291;49.602;8.722;2023-10-13T16:01:25;98754.75;;;28.79
78905;BMP280;68291;49.602;8.722;2023-10-13T16:04:24;98758.44;;;28.31
78905;BMP280;68291;49.602;8.722;2023-10-13T16:07:14;98751.50;;;27.90
78905;BMP280;68291;49.602;8.722;2023-10-13T16:10:05;98760.34;;;27.43
78905;BMP280;68291;49.602;8.722;2023-10-13T16:12:44;98756.16;;;27.07
78905;BMP280;68291;49.602;8.722;2023-10-13T16:15:25;98760.28;;;26.75
78905;BMP280;68291;49.602;8.722;2023-10-13T16:18:20;98755.28;;;26.45
78905;BMP280;68291;49.602;8.722;2023-10-13T16:21:05;98754.97;;;26.19
78905;BMP280;68291;49.602;8.722;2023-10-13T16:23:48;98738.75;;;25.93
78905;BMP280;68291;49.602;8.722;2023-10-13T16:26:38;98739.41;;;25.67
78905;BMP280;68291;49.602;8.722;2023-10-13T16:29:46;98738.81;;;25.43
78905;BMP280;68291;49.602;8.722;2023-10-13T16:32:43;98737.25;;;25.19
78905;BMP280;68291;49.602;8.722;2023-10-13T16:36:06;98734.19;;;24.86
78905;BMP280;68291;49.602;8.722;2023-10-13T16:38:49;98738.94;;;24.68
78905;BMP280;68291;49.602;8.722;2023-10-13T16:41:35;98742.03;;;24.49
78905;BMP280;68291;49.602;8.722;2023-10-13T16:44:23;98742.94;;;24.34
78905;BMP280;68291;49.602;8.722;2023-10-13T16:47:03;98728.19;;;24.25